Time;durP1;ratioP1;P1;durP2;ratioP2;P2;SDS_P1;SDS_P2;PMS_P1;PMS_P2;Temp;Humidity;BMP_temperature;BMP_pressure;BME280_temperature;BME280_humidity;BME280_pressure;Samples;Min_cycle;Max_cycle;Signal;HPM_P1;HPM_P2
2022/06/21 00:00:22;;;;;;;9.15;5.97;;;;;;;19.90;74.88;99558.16;5067505;28;20031;-28
2022/06/21 00:02:52;;;;;;;8.25;6.22;;;;;;;19.73;75.71;99555.16;5067373;28;20501;-35
2022/06/21 00:05:29;;;;;;;7.68;5.95;;;;;;;19.63;76.27;99570.38;5067354;28;20040;-32
2022/06/21 00:07:56;;;;;;;8.82;6.20;;;;;;;19.33;77.87;99560.78;5067457;28;20032;-31
2022/06/21 00:10:22;;;;;;;8.57;6.20;;;;;;;19.31;77.91;99567.56;5085905;28;20127;-28
2022/06/21 00:12:47;;;;;;;7.57;6.03;;;;;;;19.42;77.33;99564.44;5085719;28;20127;-28
2022/06/21 00:15:13;;;;;;;7.97;5.90;;;;;;;19.52;76.04;99546.50;5085736;28;20783;-30
2022/06/21 00:17:43;;;;;;;10.07;5.57;;;;;;;19.43;76.47;99549.84;5067297;28;20093;-33
2022/06/21 00:20:13;;;;;;;8.85;5.90;;;;;;;19.54;75.77;99566.72;5067038;28;20110;-31
2022/06/21 00:22:39;;;;;;;10.13;5.85;;;;;;;19.41;76.03;99546.63;5086644;28;20043;-30
2022/06/21 00:25:26;;;;;;;10.15;6.13;;;;;;;19.61;76.31;99553.63;5071397;28;20483;-30
2022/06/21 00:27:53;;;;;;;8.93;5.70;;;;;;;19.74;76.01;99554.88;5071316;28;20020;-35
2022/06/21 00:30:20;;;;;;;8.45;6.18;;;;;;;19.62;76.49;99543.66;5070927;28;20158;-30
2022/06/21 00:32:49;;;;;;;7.80;5.65;;;;;;;19.53;77.01;99543.47;5089628;28;20057;-32
2022/06/21 00:35:18;;;;;;;9.05;6.07;;;;;;;20.00;75.18;99540.94;5071055;28;20544;-32
2022/06/21 00:37:44;;;;;;;8.80;5.45;;;;;;;19.90;74.97;99528.41;5089506;28;20024;-31
2022/06/21 00:40:29;;;;;;;8.45;5.72;;;;;;;20.07;75.05;99553.00;5070930;28;20032;-28
2022/06/21 00:43:10;;;;;;;7.82;6.28;;;;;;;20.14;74.47;99541.00;5089167;28;20034;-29
2022/06/21 00:45:40;;;;;;;8.68;6.40;;;;;;;19.75;76.57;99528.59;5070562;28;20063;-32
2022/06/21 00:48:14;;;;;;;8.38;5.57;;;;;;;19.75;75.96;99545.63;5070824;28;20499;-29
2022/06/21 00:50:44;;;;;;;8.82;5.97;;;;;;;20.09;74.50;99549.22;5088815;28;20039;-29
2022/06/21 00:53:25;;;;;;;8.77;6.20;;;;;;;20.18;74.28;99542.81;5070582;28;20119;-28
2022/06/21 00:55:57;;;;;;;7.15;5.97;;;;;;;20.13;73.29;99523.19;5089183;28;20058;-33
2022/06/21 00:58:26;;;;;;;8.30;6.38;;;;;;;20.44;72.07;99540.50;5088933;28;20032;-32
2022/06/21 01:01:21;;;;;;;7.78;6.07;;;;;;;20.29;73.21;99538.06;5070977;28;20677;-30
2022/06/21 01:03:52;;;;;;;6.47;5.15;;;;;;;20.21;73.60;99536.84;5070234;28;20028;-33
2022/06/21 01:06:34;;;;;;;9.60;6.40;;;;;;;20.23;73.52;99539.25;5070539;28;20059;-33
2022/06/21 01:09:11;;;;;;;7.60;6.18;;;;;;;20.38;72.61;99535.47;5088817;28;20633;-28
2022/06/21 01:11:48;;;;;;;9.07;6.17;;;;;;;20.32;73.37;99539.38;5089684;28;20875;-30
2022/06/21 01:14:15;;;;;;;8.48;6.70;;;;;;;20.09;73.98;99532.97;5070471;28;20078;-31
2022/06/21 01:16:41;;;;;;;8.07;6.40;;;;;;;20.06;73.99;99527.06;5070143;28;20491;-34
2022/06/21 01:19:17;;;;;;;8.18;6.32;;;;;;;19.81;75.50;99546.38;5088717;28;20464;-28
2022/06/21 01:21:48;;;;;;;9.07;6.45;;;;;;;19.85;74.03;99523.84;5070795;28;20052;-31
2022/06/21 01:24:33;;;;;;;8.55;6.75;;;;;;;20.00;73.33;99551.78;5070499;28;20040;-29
2022/06/21 01:27:02;;;;;;;9.80;6.60;;;;;;;19.79;74.55;99556.69;5070243;28;20024;-30
2022/06/21 01:29:30;;;;;;;7.97;6.45;;;;;;;19.09;77.70;99549.97;5088638;28;20065;-29
2022/06/21 01:31:59;;;;;;;7.10;6.28;;;;;;;19.54;75.93;99528.88;5070099;28;20532;-29
2022/06/21 01:34:27;;;;;;;8.45;6.60;;;;;;;19.36;77.07;99529.66;5069076;28;20028;-30
2022/06/21 01:37:08;;;;;;;10.65;7.22;;;;;;;19.66;76.40;99525.72;5069795;28;20345;-31
2022/06/21 01:39:46;;;;;;;10.55;7.28;;;;;;;19.47;76.26;99529.22;5070054;28;20051;-31
2022/06/21 01:42:20;;;;;;;8.48;6.93;;;;;;;19.47;75.48;99533.81;5088235;28;20020;-31
2022/06/21 01:44:50;;;;;;;12.98;7.90;;;;;;;19.50;74.84;99546.78;5087790;28;20040;-31
2022/06/21 01:47:24;;;;;;;9.57;8.13;;;;;;;19.22;75.97;99543.06;5069471;28;20036;-31
2022/06/21 01:49:57;;;;;;;11.10;9.10;;;;;;;19.10;76.57;99529.94;5088234;28;20085;-28
2022/06/21 01:52:26;;;;;;;9.77;8.77;;;;;;;19.14;76.88;99549.09;5069547;28;20120;-32
2022/06/21 01:55:23;;;;;;;9.32;8.30;;;;;;;18.97;76.45;99542.28;5088073;28;20110;-36
2022/06/21 01:57:50;;;;;;;10.25;8.65;;;;;;;18.54;78.33;99517.03;5041715;28;20048;-30
2022/06/21 02:00:17;;;;;;;13.85;9.20;;;;;;;18.62;77.98;99529.91;5069624;28;20032;-28
2022/06/21 02:02:48;;;;;;;9.45;8.45;;;;;;;18.52;78.96;99535.41;5087467;28;20085;-29
2022/06/21 02:05:20;;;;;;;10.43;9.32;;;;;;;18.61;79.26;99531.81;5087824;28;20578;-32
2022/06/21 02:07:56;;;;;;;10.95;8.95;;;;;;;18.41;80.12;99530.13;5069191;28;20036;-28
2022/06/21 02:10:59;;;;;;;11.57;8.93;;;;;;;18.41;80.03;99524.72;5087566;28;20028;-28
2022/06/21 02:13:33;;;;;;;12.38;8.32;;;;;;;17.69;83.47;99508.22;5004701;28;20065;-29
2022/06/21 02:16:04;;;;;;;17.85;9.00;;;;;;;18.18;81.67;99525.44;5074812;28;20040;-31
2022/06/21 02:18:34;;;;;;;10.73;8.45;;;;;;;18.27;80.66;99504.88;5069118;28;20032;-29
2022/06/21 02:21:12;;;;;;;10.13;8.23;;;;;;;18.01;81.44;99518.56;5069387;28;20024;-29
2022/06/21 02:23:40;;;;;;;12.25;9.13;;;;;;;17.80;82.93;99525.97;5087693;28;20024;-29
2022/06/21 02:26:05;;;;;;;13.45;9.05;;;;;;;18.04;81.05;99526.09;5068918;28;20063;-30
2022/06/21 02:28:32;;;;;;;10.77;8.60;;;;;;;18.15;80.39;99521.41;5068762;28;20035;-29
2022/06/21 02:30:59;;;;;;;10.05;8.55;;;;;;;18.11;81.50;99541.16;5068847;28;20038;-28
2022/06/21 02:33:29;;;;;;;9.27;8.05;;;;;;;18.32;79.94;99541.78;5086970;28;20064;-28
2022/06/21 02:36:14;;;;;;;9.55;7.65;;;;;;;17.98;80.99;99521.81;5069121;28;20032;-32
2022/06/21 02:38:45;;;;;;;10.18;7.75;;;;;;;17.66;82.70;99525.78;5068662;28;20047;-31
2022/06/21 02:41:18;;;;;;;7.53;6.72;;;;;;;17.39;84.37;99528.88;5068570;28;20033;-29
2022/06/21 02:43:48;;;;;;;8.90;7.22;;;;;;;17.11;85.84;99506.09;5068235;28;20032;-29
2022/06/21 02:46:19;;;;;;;9.27;7.30;;;;;;;17.80;82.44;99512.47;5067398;28;20052;-30
2022/06/21 02:48:52;;;;;;;9.20;7.82;;;;;;;17.93;81.30;99523.75;5068513;28;20039;-29
2022/06/21 02:51:23;;;;;;;11.50;8.98;;;;;;;18.01;80.74;99515.84;5086869;28;20812;-29
2022/06/21 02:53:57;;;;;;;14.85;8.82;;;;;;;17.80;81.99;99519.78;5068337;28;20024;-33
2022/06/21 02:56:33;;;;;;;11.90;8.98;;;;;;;17.45;83.35;99525.09;5067869;28;20643;-30
2022/06/21 02:59:01;;;;;;;11.88;9.48;;;;;;;17.37;83.21;99506.00;5068487;28;20036;-29
2022/06/21 03:01:28;;;;;;;13.15;9.65;;;;;;;17.58;83.21;99522.88;5068343;28;20054;-28
2022/06/21 03:03:54;;;;;;;11.02;8.93;;;;;;;17.63;82.39;99525.50;5068154;28;20089;-33
2022/06/21 03:06:21;;;;;;;9.63;7.80;;;;;;;17.59;81.08;99514.50;5067876;28;20491;-33
2022/06/21 03:09:07;;;;;;;11.45;8.55;;;;;;;17.81;80.36;99510.56;5067634;28;20036;-28
2022/06/21 03:11:42;;;;;;;11.05;8.35;;;;;;;17.81;80.64;99505.97;5068143;28;20434;-29
2022/06/21 03:14:13;;;;;;;11.40;9.35;;;;;;;17.95;80.16;99510.78;5086276;28;20024;-28
2022/06/21 03:16:40;;;;;;;11.45;9.73;;;;;;;17.93;79.75;99497.56;5067774;28;20059;-32
2022/06/21 03:19:20;;;;;;;10.98;9.48;;;;;;;18.22;79.70;99521.88;5067867;28;20035;-33
2022/06/21 03:21:47;;;;;;;13.02;10.05;;;;;;;18.05;79.31;99508.81;5068056;28;20055;-28
2022/06/21 03:24:21;;;;;;;13.38;10.38;;;;;;;18.11;79.90;99524.97;5086421;28;20082;-28
2022/06/21 03:27:00;;;;;;;13.32;10.77;;;;;;;18.12;79.51;99531.97;5067488;28;20133;-32
2022/06/21 03:29:28;;;;;;;14.45;9.93;;;;;;;18.04;77.92;99520.69;5086120;28;20107;-30
2022/06/21 03:31:54;;;;;;;11.63;10.02;;;;;;;17.94;79.01;99520.78;5067466;28;20115;-30
2022/06/21 03:34:23;;;;;;;13.70;9.52;;;;;;;17.82;79.18;99509.50;5086205;28;20031;-30
2022/06/21 03:36:50;;;;;;;16.10;10.38;;;;;;;17.81;79.74;99521.38;5067686;28;20040;-31
2022/06/21 03:41:42;;;;;;;12.32;9.20;;;;;;;17.54;80.79;99516.41;5086120;28;20089;-37
2022/06/21 03:42:10;;;;;;;12.90;8.73;;;;;;;17.56;80.78;99517.75;5085713;28;20097;-29
2022/06/21 03:44:57;;;;;;;;;;;;;;;17.70;80.40;99514.44;5068102;28;20036;-29
2022/06/21 03:47:33;;;;;;;11.25;9.55;;;;;;;17.53;80.58;99512.91;5067608;28;19924;-28
2022/06/21 03:50:10;;;;;;;12.63;9.98;;;;;;;17.43;81.26;99499.50;5067840;28;20028;-31
2022/06/21 03:52:44;;;;;;;11.07;9.02;;;;;;;17.75;80.00;99500.91;5067278;28;20067;-33
2022/06/21 03:55:09;;;;;;;15.25;9.55;;;;;;;17.71;79.63;99487.16;5067630;28;20039;-31
2022/06/21 03:57:38;;;;;;;11.27;8.95;;;;;;;17.64;80.25;99494.78;5067401;28;20036;-29
2022/06/21 04:00:09;;;;;;;9.55;8.25;;;;;;;17.95;79.86;99495.41;5067538;28;20036;-34
2022/06/21 04:02:40;;;;;;;10.63;8.48;;;;;;;17.88;79.50;99505.72;5067387;28;20499;-30
2022/06/21 04:05:13;;;;;;;10.38;8.15;;;;;;;17.99;79.03;99491.06;5085900;28;20036;-31
2022/06/21 04:07:44;;;;;;;12.27;9.20;;;;;;;18.10;79.52;99512.56;5067432;28;20430;-31
2022/06/21 04:10:13;;;;;;;10.95;8.10;;;;;;;18.21;79.34;99504.09;5067596;28;20024;-29
2022/06/21 04:12:44;;;;;;;10.13;8.00;;;;;;;18.32;78.79;99506.72;5085237;28;20034;-32
2022/06/21 04:15:23;;;;;;;12.48;8.10;;;;;;;18.36;78.76;99505.84;5085810;28;20526;-28
2022/06/21 04:17:59;;;;;;;13.35;8.98;;;;;;;18.53;77.20;99483.00;5085819;28;20077;-32
2022/06/21 04:20:31;;;;;;;12.35;7.78;;;;;;;18.39;77.37;99477.50;5067374;28;20043;-28
2022/06/21 04:23:04;;;;;;;9.63;7.88;;;;;;;18.34;77.68;99478.34;5067382;28;20503;-29
2022/06/21 04:25:55;;;;;;;12.27;8.20;;;;;;;18.52;78.13;99500.31;5067238;28;20088;-29
2022/06/21 04:28:20;;;;;;;10.68;8.05;;;;;;;18.46;77.96;99494.16;5085565;28;20054;-29
2022/06/21 04:31:07;;;;;;;10.45;7.72;;;;;;;18.43;77.75;99489.34;5085258;28;20134;-33
2022/06/21 04:34:07;;;;;;;9.70;8.32;;;;;;;18.40;78.28;99485.28;5085722;28;20138;-29
2022/06/21 04:36:38;;;;;;;10.50;8.35;;;;;;;18.35;78.15;99471.03;5061106;28;20048;-34
2022/06/21 04:39:28;;;;;;;9.50;7.80;;;;;;;18.77;77.12;99497.34;5067271;28;20119;-32
2022/06/21 04:41:59;;;;;;;13.18;8.20;;;;;;;18.95;76.80;99500.44;5085411;28;20039;-31
2022/06/21 04:44:34;;;;;;;9.52;7.20;;;;;;;19.01;74.98;99494.66;5066608;28;20024;-30
2022/06/21 04:47:17;;;;;;;11.52;7.82;;;;;;;19.08;74.63;99488.91;5085507;28;20056;-30
2022/06/21 04:50:20;;;;;;;10.25;7.38;;;;;;;19.03;75.52;99497.09;5067211;28;20024;-29
2022/06/21 04:53:01;;;;;;;11.55;7.10;;;;;;;19.15;74.43;99483.97;5061244;28;20484;-31
2022/06/21 04:55:40;;;;;;;11.18;8.18;;;;;;;19.09;75.47;99482.41;5085793;28;20608;-34
2022/06/21 04:58:05;;;;;;;10.35;7.90;;;;;;;19.04;75.38;99466.25;5085667;28;20028;-30
2022/06/21 05:00:31;;;;;;;8.98;7.35;;;;;;;19.38;74.40;99473.38;5085540;28;20043;-31
2022/06/21 05:03:03;;;;;;;9.05;7.72;;;;;;;19.44;73.31;99474.94;5085465;28;20131;-28
2022/06/21 05:05:34;;;;;;;8.85;7.45;;;;;;;19.38;73.57;99470.69;5066938;28;20024;-31
2022/06/21 05:08:17;;;;;;;9.48;7.15;;;;;;;19.42;74.23;99471.72;5067096;28;20024;-29
2022/06/21 05:10:46;;;;;;;10.57;6.88;;;;;;;19.44;73.96;99472.22;5069349;28;20532;-30
2022/06/21 05:13:38;;;;;;;9.65;7.47;;;;;;;19.67;72.58;99474.03;5088685;28;20558;-30
2022/06/21 05:16:34;;;;;;;11.07;7.05;;;;;;;19.73;73.23;99461.25;5088977;28;20060;-37
2022/06/21 05:19:26;;;;;;;11.27;7.43;;;;;;;19.87;72.73;99478.34;5070593;28;20043;-30
2022/06/21 05:21:54;;;;;;;9.18;7.07;;;;;;;20.27;70.56;99480.69;5088781;28;20034;-33
2022/06/21 05:24:20;;;;;;;8.18;6.88;;;;;;;20.24;70.74;99470.44;5088631;28;20039;-28
2022/06/21 05:26:58;;;;;;;8.45;6.70;;;;;;;20.46;70.82;99472.50;5088337;28;20042;-29
2022/06/21 05:29:31;;;;;;;9.85;7.32;;;;;;;20.35;70.64;99471.06;5070299;28;20059;-32
2022/06/21 05:32:01;;;;;;;8.18;6.65;;;;;;;20.29;70.08;99478.50;5070235;28;20016;-29
2022/06/21 05:34:49;;;;;;;9.02;6.60;;;;;;;20.56;71.30;99476.94;5069825;28;20125;-31
2022/06/21 05:37:36;;;;;;;18.05;7.30;;;;;;;20.99;70.04;99476.66;5070117;28;20035;-30
2022/06/21 05:40:27;;;;;;;8.80;6.50;;;;;;;21.33;66.48;99476.22;5069974;28;20028;-28
2022/06/21 05:42:53;;;;;;;8.95;6.18;;;;;;;21.65;65.71;99475.22;5087531;28;20024;-29
2022/06/21 05:45:24;;;;;;;8.68;5.90;;;;;;;21.78;64.29;99456.47;5069592;28;20052;-31
2022/06/21 05:48:10;;;;;;;8.13;6.00;;;;;;;21.83;64.00;99459.09;5088060;28;20043;-31
2022/06/21 05:50:36;;;;;;;8.27;6.40;;;;;;;21.73;64.27;99481.03;5069517;28;20020;-30
2022/06/21 05:53:11;;;;;;;9.82;5.97;;;;;;;21.88;64.10;99477.94;5087885;28;20020;-29
2022/06/21 05:55:42;;;;;;;9.68;6.57;;;;;;;21.80;63.71;99462.41;5069810;28;20111;-30
2022/06/21 05:58:26;;;;;;;8.20;6.05;;;;;;;22.14;64.02;99480.06;5070028;28;20020;-31
2022/06/21 06:01:17;;;;;;;8.93;6.13;;;;;;;22.59;62.18;99493.59;5069996;28;20032;-31
2022/06/21 06:04:01;;;;;;;6.93;5.10;;;;;;;22.48;60.70;99475.97;5087734;28;20028;-30
2022/06/21 06:06:34;;;;;;;8.63;5.93;;;;;;;22.34;61.54;99476.84;5069336;28;20507;-34
2022/06/21 06:09:13;;;;;;;7.72;6.07;;;;;;;22.38;62.78;99480.53;5069529;28;20028;-30
2022/06/21 06:12:00;;;;;;;8.45;5.65;;;;;;;22.67;60.41;99485.47;5069351;28;20126;-29
2022/06/21 06:14:54;;;;;;;9.43;5.53;;;;;;;22.60;59.92;99474.25;5069346;28;20032;-29
2022/06/21 06:17:37;;;;;;;7.00;5.10;;;;;;;22.91;60.97;99489.72;5069311;28;20454;-29
2022/06/21 06:20:03;;;;;;;8.60;5.53;;;;;;;22.77;59.19;99476.22;5069213;28;20486;-29
2022/06/21 06:22:38;;;;;;;6.70;4.95;;;;;;;22.91;58.25;99486.19;5068636;28;20036;-30
2022/06/21 06:25:23;;;;;;;6.30;5.20;;;;;;;23.04;57.45;99488.00;5069144;28;20097;-31
2022/06/21 06:28:24;;;;;;;6.80;5.30;;;;;;;23.20;56.23;99494.59;5068988;28;20027;-33
2022/06/21 06:30:56;;;;;;;8.32;5.38;;;;;;;23.36;54.95;99480.56;5076007;28;20087;-29
2022/06/21 06:33:33;;;;;;;7.35;4.85;;;;;;;23.42;56.03;99468.41;5087297;28;20070;-29
2022/06/21 06:36:04;;;;;;;7.97;4.97;;;;;;;23.44;55.83;99449.84;5068931;28;20055;-35
2022/06/21 06:38:30;;;;;;;6.57;4.97;;;;;;;23.59;55.74;99484.72;5068540;28;20042;-29
2022/06/21 06:41:10;;;;;;;7.10;5.03;;;;;;;23.75;55.97;99465.19;5087063;28;20028;-30
2022/06/21 06:43:45;;;;;;;6.90;4.93;;;;;;;24.02;54.36;99475.75;5068838;28;20043;-30
2022/06/21 06:46:26;;;;;;;6.03;4.55;;;;;;;24.22;53.85;99465.31;5068414;28;20523;-37
2022/06/21 06:49:01;;;;;;;8.02;5.03;;;;;;;24.43;53.72;99471.66;5068644;28;20039;-32
2022/06/21 06:51:41;;;;;;;7.53;4.82;;;;;;;24.38;53.63;99471.84;5086915;28;20063;-29
2022/06/21 06:54:34;;;;;;;9.18;5.10;;;;;;;24.49;54.25;99477.72;5068624;28;20024;-29
2022/06/21 06:57:08;;;;;;;8.25;5.20;;;;;;;24.43;52.80;99466.19;5068430;28;20044;-31
2022/06/21 06:59:35;;;;;;;6.60;4.93;;;;;;;24.69;53.51;99473.50;5068484;28;20028;-33
2022/06/21 07:02:21;;;;;;;5.83;4.47;;;;;;;25.01;52.53;99471.28;5068074;28;20043;-30
2022/06/21 07:04:55;;;;;;;7.10;4.95;;;;;;;24.95;51.60;99464.41;5068345;28;20281;-31
2022/06/21 07:07:36;;;;;;;7.78;5.22;;;;;;;24.93;51.23;99469.38;5068002;28;20024;-29
2022/06/21 07:10:08;;;;;;;7.25;5.30;;;;;;;24.91;51.81;99452.53;5086815;28;20070;-31
2022/06/21 07:12:34;;;;;;;8.57;5.90;;;;;;;25.12;50.04;99468.94;5067710;28;20461;-30
2022/06/21 07:15:00;;;;;;;7.05;4.65;;;;;;;25.08;51.83;99476.19;5086412;28;20060;-29
2022/06/21 07:17:40;;;;;;;7.10;5.05;;;;;;;25.28;49.72;99471.94;5067978;28;20496;-32
2022/06/21 07:20:17;;;;;;;6.35;4.80;;;;;;;25.38;50.83;99457.91;5068140;28;20046;-31
2022/06/21 07:22:43;;;;;;;7.20;4.40;;;;;;;25.73;50.27;99454.88;5086037;28;20028;-31
2022/06/21 07:25:50;;;;;;;7.32;4.72;;;;;;;25.79;50.37;99467.19;5086247;28;20062;-30
2022/06/21 07:28:35;;;;;;;7.20;5.20;;;;;;;25.80;49.58;99452.38;5054572;28;20599;-32
2022/06/21 07:31:10;;;;;;;5.95;4.80;;;;;;;26.08;48.74;99462.75;5067774;28;20488;-29
2022/06/21 07:33:58;;;;;;;6.20;4.78;;;;;;;26.11;49.81;99456.59;5067775;28;20031;-33
2022/06/21 07:36:32;;;;;;;7.63;4.53;;;;;;;26.21;47.19;99450.72;5067547;28;20784;-33
2022/06/21 07:39:08;;;;;;;7.07;4.90;;;;;;;26.14;48.64;99455.94;5067827;28;20032;-32
2022/06/21 07:41:46;;;;;;;9.82;5.03;;;;;;;26.40;48.08;99453.72;5067647;28;20039;-32
2022/06/21 07:44:25;;;;;;;7.70;4.68;;;;;;;26.67;48.41;99454.22;5086157;28;20112;-30
2022/06/21 07:47:08;;;;;;;8.45;4.63;;;;;;;26.83;50.26;99446.91;5067394;28;20553;-31
2022/06/21 07:49:38;;;;;;;6.38;4.28;;;;;;;26.95;46.97;99448.03;5067514;28;20028;-29
2022/06/21 07:52:11;;;;;;;6.50;4.72;;;;;;;26.70;46.42;99439.84;5085784;28;20110;-36
2022/06/21 07:54:47;;;;;;;6.97;4.70;;;;;;;27.15;45.52;99444.34;5067666;28;20056;-31
2022/06/21 07:57:42;;;;;;;6.57;4.70;;;;;;;27.25;46.85;99435.69;5086424;28;20035;-32
2022/06/21 08:00:16;;;;;;;6.10;4.47;;;;;;;27.68;46.26;99443.53;5085745;28;20522;-33
2022/06/21 08:08:50;;;;;;;6.65;4.40;;;;;;;28.43;45.16;99437.31;5085628;28;20100;-29
2022/06/21 08:11:27;;;;;;;6.18;4.38;;;;;;;28.33;42.70;99451.56;5085924;28;20028;-29
2022/06/21 08:13:52;;;;;;;7.45;4.45;;;;;;;28.38;45.05;99437.56;5085700;28;20081;-30
2022/06/21 08:16:34;;;;;;;8.90;4.28;;;;;;;28.40;44.90;99435.28;5067405;28;20039;-35
2022/06/21 08:19:13;;;;;;;11.77;4.38;;;;;;;28.71;44.57;99440.00;5085621;28;20423;-33
2022/06/21 08:21:46;;;;;;;6.20;4.63;;;;;;;28.95;44.66;99421.69;5067613;28;20038;-32
2022/06/21 08:24:31;;;;;;;9.05;4.43;;;;;;;29.23;42.12;99447.06;5067491;28;20559;-29
2022/06/21 08:27:12;;;;;;;7.50;4.07;;;;;;;29.57;43.45;99447.38;5067452;28;20055;-30
2022/06/21 08:29:53;;;;;;;6.30;4.25;;;;;;;29.70;42.31;99449.97;5085679;28;20036;-29
2022/06/21 08:32:29;;;;;;;6.28;4.05;;;;;;;29.64;41.77;99454.94;5067470;28;20039;-32
2022/06/21 08:34:59;;;;;;;6.22;4.20;;;;;;;29.98;40.91;99450.53;5085635;28;20027;-32
2022/06/21 08:37:37;;;;;;;5.95;4.32;;;;;;;30.03;41.75;99441.97;5067468;28;20458;-34
2022/06/21 08:40:41;;;;;;;8.23;4.00;;;;;;;30.29;39.90;99448.72;5067257;28;20551;-31
2022/06/21 08:43:32;;;;;;;5.13;3.80;;;;;;;29.96;40.91;99441.84;5085613;28;20038;-32
2022/06/21 08:46:16;;;;;;;9.40;4.10;;;;;;;29.72;40.04;99444.94;5049825;28;20052;-31
2022/06/21 08:49:23;;;;;;;9.77;4.47;;;;;;;30.24;41.94;99438.03;5089241;28;20039;-29
2022/06/21 08:51:53;;;;;;;;;;;;;;;30.78;38.52;99438.91;5071526;28;20053;-31
2022/06/21 08:54:33;;;;;;;6.45;3.63;;;;;;;30.63;40.52;99438.69;5070961;28;19912;-31
2022/06/21 08:56:58;;;;;;;5.15;3.80;;;;;;;30.45;38.17;99451.38;5071030;28;20039;-32
2022/06/21 08:59:42;;;;;;;6.05;3.50;;;;;;;30.46;39.16;99444.69;5070758;28;20036;-36
2022/06/21 09:02:29;;;;;;;6.68;3.88;;;;;;;30.52;39.63;99450.69;5089116;28;20028;-29
2022/06/21 09:04:57;;;;;;;7.22;3.80;;;;;;;30.47;39.87;99445.50;5070565;28;20578;-35
2022/06/21 09:07:29;;;;;;;6.90;4.10;;;;;;;30.87;39.42;99450.44;5089077;28;20035;-30
2022/06/21 09:10:13;;;;;;;6.55;4.03;;;;;;;30.98;38.95;99434.13;5089150;28;20039;-34
2022/06/21 09:13:23;;;;;;;8.35;4.63;;;;;;;31.17;35.52;99445.00;5070619;28;20028;-36
2022/06/21 09:16:03;;;;;;;4.68;3.65;;;;;;;31.09;36.49;99426.78;5006375;28;20128;-34
2022/06/21 09:18:48;;;;;;;5.80;3.83;;;;;;;31.30;37.24;99448.31;5066699;28;20075;-32
2022/06/21 09:21:44;;;;;;;6.65;3.50;;;;;;;31.36;38.65;99437.75;5070569;28;20070;-30
2022/06/21 09:24:40;;;;;;;5.32;3.65;;;;;;;31.58;38.05;99431.34;5070633;28;20035;-35
2022/06/21 09:27:19;;;;;;;5.10;3.50;;;;;;;31.75;36.38;99420.91;5061730;28;20134;-38
2022/06/21 09:30:04;;;;;;;3.88;3.13;;;;;;;32.15;36.58;99438.69;5070159;28;20078;-31
2022/06/21 09:32:52;;;;;;;7.72;3.50;;;;;;;31.92;36.37;99430.56;5069876;28;20074;-31
2022/06/21 09:35:39;;;;;;;6.25;3.47;;;;;;;32.11;38.32;99422.09;5070137;28;20582;-29
2022/06/21 09:38:31;;;;;;;7.22;4.00;;;;;;;32.17;37.70;99419.78;5088434;28;20043;-35
2022/06/21 09:41:20;;;;;;;5.28;3.72;;;;;;;32.33;37.31;99417.56;5070453;28;20082;-30
2022/06/21 09:44:03;;;;;;;5.18;3.72;;;;;;;32.62;35.24;99395.72;5070333;28;20109;-31
2022/06/21 09:46:41;;;;;;;6.63;3.95;;;;;;;32.77;34.01;99394.59;5087679;28;20052;-34
2022/06/21 09:49:15;;;;;;;;;;;;;;;32.87;35.72;99404.13;5088577;28;20039;-31
2022/06/21 09:52:11;;;;;;;4.90;3.75;;;;;;;32.70;32.88;99389.06;5088152;28;19916;-30
2022/06/21 09:54:45;;;;;;;9.30;3.45;;;;;;;32.78;32.27;99403.72;5069660;28;20082;-30
2022/06/21 09:57:17;;;;;;;4.70;3.50;;;;;;;32.61;31.66;99394.94;5069300;28;20055;-33
2022/06/21 10:00:19;;;;;;;4.93;3.40;;;;;;;32.47;31.57;99388.47;5087820;28;20667;-32
2022/06/21 10:03:15;;;;;;;5.10;3.40;;;;;;;32.48;30.23;99390.06;5087525;28;20483;-35
2022/06/21 10:06:23;;;;;;;4.63;3.35;;;;;;;32.49;29.04;99384.16;5087807;28;20028;-33
2022/06/21 10:09:07;;;;;;;3.90;2.95;;;;;;;32.97;31.25;99383.28;5076828;28;20040;-33
2022/06/21 10:11:47;;;;;;;28.45;13.52;;;;;;;32.79;30.25;99372.94;5087629;28;20020;-29
2022/06/21 10:14:17;;;;;;;4.88;3.30;;;;;;;32.68;30.58;99361.06;5087569;28;20408;-33
2022/06/21 10:17:01;;;;;;;4.28;3.40;;;;;;;32.73;31.41;99368.16;5069112;28;20032;-32
2022/06/21 10:19:31;;;;;;;5.38;3.80;;;;;;;33.32;33.31;99362.53;5069113;28;20458;-31
2022/06/21 10:22:19;;;;;;;7.05;3.88;;;;;;;33.51;32.09;99355.88;5087505;28;20052;-33
2022/06/21 10:24:51;;;;;;;4.93;3.88;;;;;;;33.48;31.51;99353.91;5087417;28;20035;-31
2022/06/21 10:27:19;;;;;;;4.75;3.63;;;;;;;33.44;31.80;99359.41;5087505;28;20063;-30
2022/06/21 10:29:57;;;;;;;91.47;14.50;;;;;;;33.29;31.00;99360.56;5068874;28;20511;-31
2022/06/21 10:32:44;;;;;;;5.50;3.97;;;;;;;33.26;30.37;99353.03;5087177;28;20067;-30
2022/06/21 10:35:15;;;;;;;5.20;3.72;;;;;;;33.20;30.00;99355.38;5087375;28;20543;-34
2022/06/21 10:37:56;;;;;;;7.00;4.60;;;;;;;33.48;29.68;99345.63;5087074;28;20104;-32
2022/06/21 10:40:47;;;;;;;4.43;3.25;;;;;;;33.28;30.03;99348.69;5068613;28;20479;-39
2022/06/21 10:43:40;;;;;;;4.43;3.47;;;;;;;33.33;28.98;99347.56;5067900;28;20044;-30
2022/06/21 10:46:32;;;;;;;7.78;6.47;;;;;;;33.43;30.33;99338.50;5064773;28;20133;-37
2022/06/21 10:49:19;;;;;;;35.63;8.70;;;;;;;34.11;28.16;99338.56;5065224;28;20432;-40
2022/06/21 10:52:02;;;;;;;5.78;3.35;;;;;;;33.64;29.88;99328.69;5067072;28;20028;-31
2022/06/21 10:54:30;;;;;;;35.20;8.75;;;;;;;33.64;30.19;99337.78;5066471;28;20044;-33
2022/06/21 10:57:11;;;;;;;4.22;3.40;;;;;;;34.07;29.17;99332.25;5066672;28;20036;-30
2022/06/21 11:02:51;;;;;;;4.47;3.50;;;;;;;34.16;28.97;99331.88;5066270;28;20043;-34
2022/06/21 11:05:17;;;;;;;37.47;7.03;;;;;;;34.14;29.76;99337.03;5065032;28;20047;-33
2022/06/21 11:08:09;;;;;;;4.47;3.13;;;;;;;34.31;29.37;99332.69;5063959;28;20075;-36
2022/06/21 11:10:52;;;;;;;4.53;3.60;;;;;;;34.76;29.33;99333.78;5064666;28;20033;-31
2022/06/21 11:13:20;;;;;;;4.53;3.45;;;;;;;34.61;29.42;99321.94;5064844;28;20040;-32
2022/06/21 11:16:11;;;;;;;6.60;3.50;;;;;;;34.88;27.75;99334.50;5064805;28;20516;-31
2022/06/21 11:18:54;;;;;;;3.80;3.20;;;;;;;35.15;29.60;99330.06;5066351;28;20119;-31
2022/06/21 11:21:32;;;;;;;6.97;3.17;;;;;;;35.47;28.98;99331.88;5064795;28;20672;-31
2022/06/21 11:24:15;;;;;;;6.00;3.30;;;;;;;35.97;28.00;99334.31;5066230;28;20037;-34
2022/06/21 11:27:14;;;;;;;3.63;2.78;;;;;;;36.05;26.70;99331.47;5064120;28;20641;-33
2022/06/21 11:29:39;;;;;;;4.85;3.05;;;;;;;35.92;26.34;99329.19;5061798;28;20044;-35
2022/06/21 11:32:22;;;;;;;21.08;5.28;;;;;;;35.49;26.19;99323.94;5064484;28;20503;-31
2022/06/21 11:35:25;;;;;;;6.03;3.13;;;;;;;34.92;27.16;99322.25;5065852;28;20036;-33
2022/06/21 11:38:19;;;;;;;5.00;3.30;;;;;;;35.32;26.50;99322.06;5066051;28;20033;-32
2022/06/21 11:41:00;;;;;;;3.95;3.30;;;;;;;35.31;27.74;99312.16;5065785;28;20024;-32
2022/06/21 11:43:28;;;;;;;5.60;3.53;;;;;;;35.68;26.59;99324.66;5063887;28;20060;-33
2022/06/21 11:46:10;;;;;;;5.45;2.88;;;;;;;35.51;26.40;99324.34;5073458;28;20048;-39
2022/06/21 11:48:42;;;;;;;6.28;3.63;;;;;;;34.98;26.56;99322.59;5085874;28;20028;-31
2022/06/21 11:51:10;;;;;;;4.05;3.13;;;;;;;35.72;25.35;99311.53;5086344;28;20032;-30
2022/06/21 11:53:55;;;;;;;5.55;3.17;;;;;;;35.86;26.08;99313.38;5085763;28;20020;-30
2022/06/21 11:56:30;;;;;;;7.05;3.55;;;;;;;35.80;26.71;99310.28;5067834;28;20043;-30
2022/06/21 11:59:04;;;;;;;6.30;3.10;;;;;;;35.75;25.71;99316.25;5067642;28;20057;-30
2022/06/21 12:01:56;;;;;;;6.95;3.17;;;;;;;35.79;25.94;99314.25;5067631;28;20082;-35
2022/06/21 12:04:26;;;;;;;4.68;3.20;;;;;;;35.96;26.84;99305.00;5067474;28;20089;-30
2022/06/21 12:07:16;;;;;;;4.90;3.15;;;;;;;35.74;27.91;99301.59;5067715;28;20080;-30
2022/06/21 12:09:55;;;;;;;46.55;9.65;;;;;;;35.03;28.01;99302.78;5067479;28;20388;-35
2022/06/21 12:12:39;;;;;;;5.70;3.83;;;;;;;34.86;28.16;99292.56;5067044;28;20043;-30
2022/06/21 12:15:41;;;;;;;6.13;3.67;;;;;;;35.81;28.01;99300.75;5085729;28;20427;-32
2022/06/21 12:18:17;;;;;;;6.13;3.92;;;;;;;35.78;26.91;99296.81;5086021;28;20463;-31
2022/06/21 12:20:58;;;;;;;7.07;4.60;;;;;;;35.76;26.87;99284.56;5071262;28;20063;-36
2022/06/21 12:23:30;;;;;;;7.43;4.90;;;;;;;35.76;26.74;99273.47;5090048;28;20153;-38
2022/06/21 12:25:57;;;;;;;7.90;4.65;;;;;;;36.22;27.83;99274.25;5071549;28;20039;-30
2022/06/21 12:28:29;;;;;;;5.72;4.53;;;;;;;36.88;26.42;99275.88;5071128;28;20036;-31